KLRD/LRD METAR and TAF weather

Enter ICAO airport designator
Station Type Date Time Source
KLRD METAR 2021/07/28 03:56 UTC NOAA

KLRD 280356Z 12013KT 10SM CLR 31/22 A2998 RMK AO2 SLP146 T03060217


Station Type Date Time Source
KLRD Decoded METAR 2021/07/28 03:56 UTC NOAA

Laredo, Laredo International Airport, TX, United States (KLRD) 27-32-37N 099-27-41W
Jul 27, 2021 - 11:56 PM EDT / 2021.07.28 0356 UTC
Wind: from the ESE (120 degrees) at 15 MPH (13 KT):0
Visibility: 10 mile(s):0
Sky conditions: clear
Temperature: 87.1 F (30.6 C)
Heat index: 92.8 F (33.8 C):1
Dew Point: 71.1 F (21.7 C)
Relative Humidity: 59%
Pressure (altimeter): 29.98 in. Hg (1015 hPa)
ob: KLRD 280356Z 12013KT 10SM CLR 31/22 A2998 RMK AO2 SLP146 T03060217
cycle: 4

Station Type Date Time Source
KLRD TAF 2021/07/27 18:22 UTC NOAA

TAF KLRD 271720Z 2718/2818 13005KT P6SM FEW250
FM272000 13011G19KT P6SM SKC
FM280200 VRB04KT P6SM FEW015
TEMPO 2812/2815 BKN015

Example: see airport list